sensor_id;sensor_type;location;lat;lon;timestamp;P1;durP1;ratioP1;P2;durP2;ratioP2
42194;SDS011;27863;49.440;11.102;2023-06-26T00:01:58;6.70;;;6.20;;
42194;SDS011;27863;49.440;11.102;2023-06-26T00:04:59;7.10;;;6.55;;
42194;SDS011;27863;49.440;11.102;2023-06-26T00:08:02;6.68;;;6.18;;
42194;SDS011;27863;49.440;11.102;2023-06-26T00:11:02;7.68;;;7.07;;
42194;SDS011;27863;49.440;11.102;2023-06-26T00:14:03;6.90;;;6.40;;
42194;SDS011;27863;49.440;11.102;2023-06-26T00:17:03;7.68;;;7.07;;
42194;SDS011;27863;49.440;11.102;2023-06-26T00:20:04;7.05;;;6.55;;
42194;SDS011;27863;49.440;11.102;2023-06-26T00:23:06;7.68;;;6.93;;
42194;SDS011;27863;49.440;11.102;2023-06-26T00:26:07;9.00;;;6.75;;
42194;SDS011;27863;49.440;11.102;2023-06-26T00:29:09;6.05;;;5.65;;
42194;SDS011;27863;49.440;11.102;2023-06-26T00:32:09;6.75;;;6.20;;
42194;SDS011;27863;49.440;11.102;2023-06-26T00:35:10;7.50;;;6.82;;
42194;SDS011;27863;49.440;11.102;2023-06-26T00:38:10;6.60;;;6.00;;
42194;SDS011;27863;49.440;11.102;2023-06-26T00:41:11;6.88;;;6.30;;
42194;SDS011;27863;49.440;11.102;2023-06-26T00:44:12;6.28;;;5.88;;
42194;SDS011;27863;49.440;11.102;2023-06-26T00:47:14;6.18;;;5.78;;
42194;SDS011;27863;49.440;11.102;2023-06-26T00:50:15;9.80;;;6.45;;
42194;SDS011;27863;49.440;11.102;2023-06-26T00:53:17;5.78;;;5.38;;
42194;SDS011;27863;49.440;11.102;2023-06-26T00:56:20;6.25;;;5.75;;
42194;SDS011;27863;49.440;11.102;2023-06-26T00:59:20;6.78;;;6.20;;
42194;SDS011;27863;49.440;11.102;2023-06-26T01:02:21;7.65;;;7.03;;
42194;SDS011;27863;49.440;11.102;2023-06-26T01:05:24;6.85;;;6.22;;
42194;SDS011;27863;49.440;11.102;2023-06-26T01:08:26;7.05;;;6.45;;
42194;SDS011;27863;49.440;11.102;2023-06-26T01:11:27;6.35;;;5.85;;
42194;SDS011;27863;49.440;11.102;2023-06-26T01:14:28;6.50;;;6.00;;
42194;SDS011;27863;49.440;11.102;2023-06-26T01:17:28;6.68;;;6.18;;
42194;SDS011;27863;49.440;11.102;2023-06-26T01:20:32;7.55;;;6.82;;
42194;SDS011;27863;49.440;11.102;2023-06-26T01:23:38;6.28;;;5.80;;
42194;SDS011;27863;49.440;11.102;2023-06-26T01:26:48;7.22;;;6.72;;
42194;SDS011;27863;49.440;11.102;2023-06-26T01:29:51;7.68;;;7.07;;
42194;SDS011;27863;49.440;11.102;2023-06-26T01:32:51;6.60;;;6.15;;
42194;SDS011;27863;49.440;11.102;2023-06-26T01:35:52;6.60;;;6.10;;
42194;SDS011;27863;49.440;11.102;2023-06-26T01:38:52;6.93;;;6.32;;
42194;SDS011;27863;49.440;11.102;2023-06-26T01:41:53;6.68;;;6.18;;
42194;SDS011;27863;49.440;11.102;2023-06-26T01:44:53;6.93;;;6.35;;
42194;SDS011;27863;49.440;11.102;2023-06-26T01:47:55;6.18;;;5.78;;
42194;SDS011;27863;49.440;11.102;2023-06-26T01:50:58;7.25;;;6.28;;
42194;SDS011;27863;49.440;11.102;2023-06-26T01:54:01;6.13;;;5.63;;
42194;SDS011;27863;49.440;11.102;2023-06-26T01:57:01;7.57;;;6.97;;
42194;SDS011;27863;49.440;11.102;2023-06-26T02:00:02;7.40;;;6.70;;
42194;SDS011;27863;49.440;11.102;2023-06-26T02:03:13;6.88;;;6.28;;
42194;SDS011;27863;49.440;11.102;2023-06-26T02:06:14;6.60;;;6.10;;
42194;SDS011;27863;49.440;11.102;2023-06-26T02:09:15;6.78;;;6.28;;
42194;SDS011;27863;49.440;11.102;2023-06-26T02:12:15;6.53;;;5.95;;
42194;SDS011;27863;49.440;11.102;2023-06-26T02:15:16;7.45;;;6.85;;
42194;SDS011;27863;49.440;11.102;2023-06-26T02:18:16;7.68;;;7.07;;
42194;SDS011;27863;49.440;11.102;2023-06-26T02:21:17;7.20;;;6.60;;
42194;SDS011;27863;49.440;11.102;2023-06-26T02:24:18;7.10;;;6.55;;
42194;SDS011;27863;49.440;11.102;2023-06-26T02:27:18;5.65;;;5.25;;
42194;SDS011;27863;49.440;11.102;2023-06-26T02:30:19;7.63;;;7.03;;
42194;SDS011;27863;49.440;11.102;2023-06-26T02:33:19;7.13;;;6.47;;
42194;SDS011;27863;49.440;11.102;2023-06-26T02:36:22;7.45;;;6.85;;
42194;SDS011;27863;49.440;11.102;2023-06-26T02:39:23;7.07;;;6.57;;
42194;SDS011;27863;49.440;11.102;2023-06-26T02:42:24;7.25;;;6.72;;
42194;SDS011;27863;49.440;11.102;2023-06-26T02:45:25;6.72;;;6.22;;
42194;SDS011;27863;49.440;11.102;2023-06-26T02:48:26;7.70;;;7.05;;
42194;SDS011;27863;49.440;11.102;2023-06-26T02:51:27;7.47;;;6.88;;
42194;SDS011;27863;49.440;11.102;2023-06-26T02:54:28;7.00;;;6.50;;
42194;SDS011;27863;49.440;11.102;2023-06-26T02:57:35;7.53;;;6.93;;
42194;SDS011;27863;49.440;11.102;2023-06-26T03:00:37;7.40;;;6.75;;
42194;SDS011;27863;49.440;11.102;2023-06-26T03:03:41;7.75;;;7.10;;
42194;SDS011;27863;49.440;11.102;2023-06-26T03:06:47;7.35;;;6.75;;
42194;SDS011;27863;49.440;11.102;2023-06-26T03:09:49;7.25;;;6.75;;
42194;SDS011;27863;49.440;11.102;2023-06-26T03:12:49;7.55;;;6.95;;
42194;SDS011;27863;49.440;11.102;2023-06-26T03:15:51;6.25;;;5.85;;
42194;SDS011;27863;49.440;11.102;2023-06-26T03:18:52;7.22;;;6.63;;
42194;SDS011;27863;49.440;11.102;2023-06-26T03:21:53;8.05;;;7.40;;
42194;SDS011;27863;49.440;11.102;2023-06-26T03:24:53;6.97;;;6.47;;
42194;SDS011;27863;49.440;11.102;2023-06-26T03:27:55;7.60;;;7.00;;
42194;SDS011;27863;49.440;11.102;2023-06-26T03:30:56;7.88;;;7.28;;
42194;SDS011;27863;49.440;11.102;2023-06-26T03:33:56;7.53;;;6.93;;
42194;SDS011;27863;49.440;11.102;2023-06-26T03:36:57;7.82;;;7.22;;
42194;SDS011;27863;49.440;11.102;2023-06-26T03:39:58;7.00;;;6.50;;
42194;SDS011;27863;49.440;11.102;2023-06-26T03:42:58;6.25;;;5.78;;
42194;SDS011;27863;49.440;11.102;2023-06-26T03:45:59;7.55;;;6.80;;
42194;SDS011;27863;49.440;11.102;2023-06-26T03:49:00;7.38;;;6.78;;
42194;SDS011;27863;49.440;11.102;2023-06-26T03:52:01;6.80;;;6.20;;
42194;SDS011;27863;49.440;11.102;2023-06-26T03:55:01;7.70;;;7.10;;
42194;SDS011;27863;49.440;11.102;2023-06-26T03:58:04;7.15;;;6.55;;
42194;SDS011;27863;49.440;11.102;2023-06-26T04:01:05;7.75;;;6.40;;
42194;SDS011;27863;49.440;11.102;2023-06-26T04:04:05;6.70;;;6.20;;
42194;SDS011;27863;49.440;11.102;2023-06-26T04:07:06;7.57;;;6.97;;
42194;SDS011;27863;49.440;11.102;2023-06-26T04:10:07;6.70;;;6.28;;
42194;SDS011;27863;49.440;11.102;2023-06-26T04:13:08;6.78;;;6.18;;
42194;SDS011;27863;49.440;11.102;2023-06-26T04:16:09;7.07;;;6.50;;
42194;SDS011;27863;49.440;11.102;2023-06-26T04:19:11;7.03;;;6.45;;
42194;SDS011;27863;49.440;11.102;2023-06-26T04:22:12;6.63;;;6.13;;
42194;SDS011;27863;49.440;11.102;2023-06-26T04:25:12;5.88;;;5.47;;
42194;SDS011;27863;49.440;11.102;2023-06-26T04:28:13;6.90;;;6.28;;
42194;SDS011;27863;49.440;11.102;2023-06-26T04:31:13;7.13;;;6.45;;
42194;SDS011;27863;49.440;11.102;2023-06-26T04:34:14;7.50;;;6.90;;
42194;SDS011;27863;49.440;11.102;2023-06-26T04:37:15;8.45;;;6.43;;
42194;SDS011;27863;49.440;11.102;2023-06-26T04:40:19;6.70;;;6.20;;
42194;SDS011;27863;49.440;11.102;2023-06-26T04:43:19;6.45;;;5.95;;
42194;SDS011;27863;49.440;11.102;2023-06-26T04:46:20;6.47;;;5.97;;
42194;SDS011;27863;49.440;11.102;2023-06-26T04:49:20;5.88;;;5.38;;
42194;SDS011;27863;49.440;11.102;2023-06-26T04:52:21;6.53;;;6.03;;
42194;SDS011;27863;49.440;11.102;2023-06-26T04:55:23;7.05;;;6.35;;
42194;SDS011;27863;49.440;11.102;2023-06-26T04:58:24;6.53;;;6.03;;
42194;SDS011;27863;49.440;11.102;2023-06-26T05:01:24;6.40;;;5.90;;
42194;SDS011;27863;49.440;11.102;2023-06-26T05:04:25;11.55;;;6.18;;
42194;SDS011;27863;49.440;11.102;2023-06-26T05:07:25;6.28;;;5.75;;
42194;SDS011;27863;49.440;11.102;2023-06-26T05:10:26;5.93;;;5.50;;
42194;SDS011;27863;49.440;11.102;2023-06-26T05:13:26;6.80;;;6.30;;
42194;SDS011;27863;49.440;11.102;2023-06-26T05:16:27;5.53;;;5.13;;
42194;SDS011;27863;49.440;11.102;2023-06-26T05:19:27;6.50;;;5.90;;
42194;SDS011;27863;49.440;11.102;2023-06-26T05:22:28;5.15;;;4.85;;
42194;SDS011;27863;49.440;11.102;2023-06-26T05:25:29;15.77;;;5.65;;
42194;SDS011;27863;49.440;11.102;2023-06-26T05:29:30;5.22;;;4.82;;
42194;SDS011;27863;49.440;11.102;2023-06-26T05:33:31;5.85;;;5.35;;
42194;SDS011;27863;49.440;11.102;2023-06-26T05:37:34;17.30;;;5.93;;
42194;SDS011;27863;49.440;11.102;2023-06-26T05:41:33;5.85;;;5.35;;
42194;SDS011;27863;49.440;11.102;2023-06-26T05:45:33;6.05;;;5.53;;
42194;SDS011;27863;49.440;11.102;2023-06-26T05:49:34;5.40;;;5.00;;
42194;SDS011;27863;49.440;11.102;2023-06-26T05:53:33;6.43;;;4.78;;
42194;SDS011;27863;49.440;11.102;2023-06-26T05:57:32;6.25;;;5.60;;
42194;SDS011;27863;49.440;11.102;2023-06-26T06:01:33;6.47;;;5.82;;
42194;SDS011;27863;49.440;11.102;2023-06-26T06:05:31;6.13;;;4.78;;
42194;SDS011;27863;49.440;11.102;2023-06-26T06:09:31;5.00;;;4.47;;
42194;SDS011;27863;49.440;11.102;2023-06-26T06:13:30;5.05;;;4.63;;
42194;SDS011;27863;49.440;11.102;2023-06-26T06:17:29;5.60;;;5.15;;
42194;SDS011;27863;49.440;11.102;2023-06-26T06:21:28;5.05;;;4.65;;
42194;SDS011;27863;49.440;11.102;2023-06-26T06:25:27;4.90;;;4.45;;
42194;SDS011;27863;49.440;11.102;2023-06-26T06:29:27;5.40;;;5.00;;
42194;SDS011;27863;49.440;11.102;2023-06-26T06:33:27;5.65;;;5.25;;
42194;SDS011;27863;49.440;11.102;2023-06-26T06:37:26;5.35;;;4.95;;
42194;SDS011;27863;49.440;11.102;2023-06-26T06:41:25;9.32;;;5.00;;
42194;SDS011;27863;49.440;11.102;2023-06-26T06:45:24;6.13;;;5.45;;
42194;SDS011;27863;49.440;11.102;2023-06-26T06:49:23;5.13;;;4.82;;
42194;SDS011;27863;49.440;11.102;2023-06-26T06:53:22;5.28;;;4.95;;
42194;SDS011;27863;49.440;11.102;2023-06-26T06:57:21;4.75;;;4.30;;
42194;SDS011;27863;49.440;11.102;2023-06-26T07:01:20;4.57;;;4.28;;
42194;SDS011;27863;49.440;11.102;2023-06-26T07:05:19;4.95;;;4.55;;
42194;SDS011;27863;49.440;11.102;2023-06-26T07:09:18;4.20;;;3.90;;
42194;SDS011;27863;49.440;11.102;2023-06-26T07:13:17;5.38;;;4.97;;
42194;SDS011;27863;49.440;11.102;2023-06-26T07:17:16;5.13;;;4.72;;
42194;SDS011;27863;49.440;11.102;2023-06-26T07:21:15;4.63;;;4.22;;
42194;SDS011;27863;49.440;11.102;2023-06-26T07:25:14;4.32;;;4.03;;
42194;SDS011;27863;49.440;11.102;2023-06-26T07:29:14;5.78;;;5.25;;
42194;SDS011;27863;49.440;11.102;2023-06-26T07:33:13;4.65;;;4.35;;
42194;SDS011;27863;49.440;11.102;2023-06-26T07:37:12;4.93;;;4.53;;
42194;SDS011;27863;49.440;11.102;2023-06-26T07:41:11;5.03;;;4.72;;
42194;SDS011;27863;49.440;11.102;2023-06-26T07:45:10;5.13;;;4.82;;
42194;SDS011;27863;49.440;11.102;2023-06-26T07:49:09;5.85;;;5.35;;
42194;SDS011;27863;49.440;11.102;2023-06-26T07:53:08;5.90;;;5.45;;
42194;SDS011;27863;49.440;11.102;2023-06-26T07:57:07;4.72;;;4.43;;
42194;SDS011;27863;49.440;11.102;2023-06-26T08:01:07;5.85;;;5.45;;
42194;SDS011;27863;49.440;11.102;2023-06-26T08:05:06;5.47;;;5.07;;
42194;SDS011;27863;49.440;11.102;2023-06-26T08:09:08;6.07;;;5.38;;
42194;SDS011;27863;49.440;11.102;2023-06-26T08:13:07;5.38;;;4.88;;
42194;SDS011;27863;49.440;11.102;2023-06-26T08:17:06;5.22;;;4.82;;
42194;SDS011;27863;49.440;11.102;2023-06-26T08:21:05;5.53;;;5.22;;
42194;SDS011;27863;49.440;11.102;2023-06-26T08:25:05;5.30;;;4.93;;
42194;SDS011;27863;49.440;11.102;2023-06-26T08:29:04;5.45;;;5.03;;
42194;SDS011;27863;49.440;11.102;2023-06-26T08:33:05;5.63;;;5.22;;
42194;SDS011;27863;49.440;11.102;2023-06-26T08:37:04;5.38;;;4.97;;
42194;SDS011;27863;49.440;11.102;2023-06-26T08:41:04;6.05;;;5.65;;
42194;SDS011;27863;49.440;11.102;2023-06-26T08:45:03;5.38;;;5.07;;
42194;SDS011;27863;49.440;11.102;2023-06-26T08:49:25;5.78;;;5.38;;
42194;SDS011;27863;49.440;11.102;2023-06-26T08:53:43;6.25;;;5.85;;
42194;SDS011;27863;49.440;11.102;2023-06-26T08:57:46;5.22;;;4.90;;
42194;SDS011;27863;49.440;11.102;2023-06-26T09:01:45;5.43;;;5.03;;
42194;SDS011;27863;49.440;11.102;2023-06-26T09:05:44;5.80;;;5.22;;
42194;SDS011;27863;49.440;11.102;2023-06-26T09:09:44;5.15;;;4.80;;
42194;SDS011;27863;49.440;11.102;2023-06-26T09:13:43;5.50;;;5.10;;
42194;SDS011;27863;49.440;11.102;2023-06-26T09:17:42;6.38;;;5.88;;
42194;SDS011;27863;49.440;11.102;2023-06-26T09:21:43;5.28;;;4.88;;
42194;SDS011;27863;49.440;11.102;2023-06-26T09:25:43;5.65;;;5.25;;
42194;SDS011;27863;49.440;11.102;2023-06-26T09:29:42;5.82;;;5.43;;
42194;SDS011;27863;49.440;11.102;2023-06-26T09:33:41;5.40;;;5.00;;
42194;SDS011;27863;49.440;11.102;2023-06-26T09:37:41;5.22;;;4.93;;
42194;SDS011;27863;49.440;11.102;2023-06-26T09:41:41;6.32;;;5.78;;
42194;SDS011;27863;49.440;11.102;2023-06-26T09:45:41;5.85;;;5.45;;
42194;SDS011;27863;49.440;11.102;2023-06-26T09:49:42;5.82;;;5.43;;
42194;SDS011;27863;49.440;11.102;2023-06-26T09:53:42;5.70;;;5.20;;
42194;SDS011;27863;49.440;11.102;2023-06-26T09:57:41;7.35;;;6.70;;
42194;SDS011;27863;49.440;11.102;2023-06-26T10:01:41;5.95;;;5.45;;
42194;SDS011;27863;49.440;11.102;2023-06-26T10:05:40;6.55;;;6.15;;
42194;SDS011;27863;49.440;11.102;2023-06-26T10:09:41;24.27;;;7.15;;
42194;SDS011;27863;49.440;11.102;2023-06-26T10:13:42;6.75;;;6.13;;
42194;SDS011;27863;49.440;11.102;2023-06-26T10:17:42;5.68;;;5.28;;
42194;SDS011;27863;49.440;11.102;2023-06-26T10:21:41;5.40;;;5.07;;
42194;SDS011;27863;49.440;11.102;2023-06-26T10:25:44;5.15;;;4.75;;
42194;SDS011;27863;49.440;11.102;2023-06-26T10:29:45;5.70;;;5.20;;
42194;SDS011;27863;49.440;11.102;2023-06-26T10:33:47;5.40;;;4.90;;
42194;SDS011;27863;49.440;11.102;2023-06-26T10:37:47;4.95;;;4.57;;
42194;SDS011;27863;49.440;11.102;2023-06-26T10:41:54;6.32;;;5.93;;
42194;SDS011;27863;49.440;11.102;2023-06-26T10:46:07;6.10;;;5.68;;
42194;SDS011;27863;49.440;11.102;2023-06-26T10:54:16;6.00;;;5.50;;
42194;SDS011;27863;49.440;11.102;2023-06-26T10:58:39;6.22;;;5.75;;
42194;SDS011;27863;49.440;11.102;2023-06-26T11:02:52;6.75;;;6.25;;
42194;SDS011;27863;49.440;11.102;2023-06-26T11:07:14;6.38;;;5.93;;
42194;SDS011;27863;49.440;11.102;2023-06-26T11:11:17;5.75;;;5.00;;
42194;SDS011;27863;49.440;11.102;2023-06-26T11:15:16;6.40;;;5.90;;
42194;SDS011;27863;49.440;11.102;2023-06-26T11:19:16;6.32;;;5.82;;
42194;SDS011;27863;49.440;11.102;2023-06-26T11:23:16;5.57;;;5.13;;
42194;SDS011;27863;49.440;11.102;2023-06-26T11:27:19;5.47;;;5.07;;
42194;SDS011;27863;49.440;11.102;2023-06-26T11:35:23;5.82;;;5.43;;
42194;SDS011;27863;49.440;11.102;2023-06-26T11:39:25;4.88;;;4.47;;
42194;SDS011;27863;49.440;11.102;2023-06-26T11:43:27;5.05;;;4.65;;
42194;SDS011;27863;49.440;11.102;2023-06-26T11:47:30;5.28;;;4.85;;
42194;SDS011;27863;49.440;11.102;2023-06-26T11:51:29;5.65;;;4.75;;
42194;SDS011;27863;49.440;11.102;2023-06-26T11:55:39;6.10;;;4.70;;
42194;SDS011;27863;49.440;11.102;2023-06-26T11:59:39;5.05;;;4.55;;
42194;SDS011;27863;49.440;11.102;2023-06-26T12:03:42;5.10;;;4.70;;
42194;SDS011;27863;49.440;11.102;2023-06-26T12:07:43;5.05;;;4.63;;
42194;SDS011;27863;49.440;11.102;2023-06-26T12:11:43;9.32;;;4.22;;
42194;SDS011;27863;49.440;11.102;2023-06-26T12:15:42;5.20;;;4.75;;
42194;SDS011;27863;49.440;11.102;2023-06-26T12:19:45;4.75;;;4.35;;
42194;SDS011;27863;49.440;11.102;2023-06-26T12:22:49;4.03;;;3.72;;
42194;SDS011;27863;49.440;11.102;2023-06-26T12:25:50;4.20;;;3.90;;
42194;SDS011;27863;49.440;11.102;2023-06-26T12:28:51;6.75;;;4.20;;
42194;SDS011;27863;49.440;11.102;2023-06-26T12:31:52;4.03;;;3.72;;
42194;SDS011;27863;49.440;11.102;2023-06-26T12:34:53;4.22;;;3.80;;
42194;SDS011;27863;49.440;11.102;2023-06-26T12:37:53;4.68;;;4.38;;
42194;SDS011;27863;49.440;11.102;2023-06-26T12:44:25;4.63;;;4.28;;
42194;SDS011;27863;49.440;11.102;2023-06-26T12:47:27;4.80;;;4.47;;
42194;SDS011;27863;49.440;11.102;2023-06-26T12:50:28;5.13;;;4.68;;
42194;SDS011;27863;49.440;11.102;2023-06-26T12:53:30;4.68;;;4.32;;
42194;SDS011;27863;49.440;11.102;2023-06-26T12:56:30;5.10;;;4.60;;
42194;SDS011;27863;49.440;11.102;2023-06-26T12:59:31;4.03;;;3.72;;
42194;SDS011;27863;49.440;11.102;2023-06-26T13:02:32;5.22;;;4.85;;
42194;SDS011;27863;49.440;11.102;2023-06-26T13:05:32;4.95;;;4.55;;
42194;SDS011;27863;49.440;11.102;2023-06-26T13:08:34;4.70;;;4.30;;
42194;SDS011;27863;49.440;11.102;2023-06-26T13:11:35;4.57;;;4.18;;
42194;SDS011;27863;49.440;11.102;2023-06-26T13:14:36;5.03;;;4.53;;
42194;SDS011;27863;49.440;11.102;2023-06-26T13:17:38;4.35;;;4.05;;
42194;SDS011;27863;49.440;11.102;2023-06-26T13:20:38;4.82;;;4.43;;
42194;SDS011;27863;49.440;11.102;2023-06-26T13:23:39;12.90;;;4.45;;
42194;SDS011;27863;49.440;11.102;2023-06-26T13:26:40;5.60;;;5.10;;
42194;SDS011;27863;49.440;11.102;2023-06-26T13:29:40;5.03;;;4.63;;
42194;SDS011;27863;49.440;11.102;2023-06-26T13:32:41;4.72;;;4.32;;
42194;SDS011;27863;49.440;11.102;2023-06-26T13:35:42;5.60;;;5.05;;
42194;SDS011;27863;49.440;11.102;2023-06-26T13:38:42;5.63;;;5.13;;
42194;SDS011;27863;49.440;11.102;2023-06-26T13:41:43;4.65;;;4.35;;
42194;SDS011;27863;49.440;11.102;2023-06-26T13:44:44;5.55;;;5.05;;
42194;SDS011;27863;49.440;11.102;2023-06-26T13:47:44;6.22;;;5.72;;
42194;SDS011;27863;49.440;11.102;2023-06-26T13:50:45;5.78;;;5.38;;
42194;SDS011;27863;49.440;11.102;2023-06-26T13:53:47;5.30;;;4.90;;
42194;SDS011;27863;49.440;11.102;2023-06-26T13:56:48;5.15;;;4.80;;
42194;SDS011;27863;49.440;11.102;2023-06-26T13:59:48;5.45;;;4.95;;
42194;SDS011;27863;49.440;11.102;2023-06-26T14:02:49;5.32;;;4.93;;
42194;SDS011;27863;49.440;11.102;2023-06-26T14:05:50;5.38;;;4.93;;
42194;SDS011;27863;49.440;11.102;2023-06-26T14:08:50;5.60;;;4.90;;
42194;SDS011;27863;49.440;11.102;2023-06-26T14:11:51;5.68;;;5.18;;
42194;SDS011;27863;49.440;11.102;2023-06-26T14:14:51;6.32;;;5.78;;
42194;SDS011;27863;49.440;11.102;2023-06-26T14:17:52;5.88;;;5.40;;
42194;SDS011;27863;49.440;11.102;2023-06-26T14:20:53;6.20;;;5.72;;
42194;SDS011;27863;49.440;11.102;2023-06-26T14:23:54;5.72;;;5.32;;
42194;SDS011;27863;49.440;11.102;2023-06-26T14:26:55;5.95;;;5.55;;
42194;SDS011;27863;49.440;11.102;2023-06-26T14:29:55;5.80;;;5.30;;
42194;SDS011;27863;49.440;11.102;2023-06-26T14:32:56;6.20;;;5.70;;
42194;SDS011;27863;49.440;11.102;2023-06-26T14:35:56;5.85;;;5.43;;
42194;SDS011;27863;49.440;11.102;2023-06-26T14:38:57;5.93;;;5.40;;
42194;SDS011;27863;49.440;11.102;2023-06-26T14:41:59;16.45;;;6.55;;
42194;SDS011;27863;49.440;11.102;2023-06-26T14:45:00;7.53;;;5.88;;
42194;SDS011;27863;49.440;11.102;2023-06-26T14:48:00;6.90;;;5.95;;
42194;SDS011;27863;49.440;11.102;2023-06-26T14:51:01;10.63;;;6.00;;
42194;SDS011;27863;49.440;11.102;2023-06-26T14:54:01;6.28;;;5.68;;
42194;SDS011;27863;49.440;11.102;2023-06-26T14:57:03;7.03;;;6.35;;
42194;SDS011;27863;49.440;11.102;2023-06-26T15:00:04;8.85;;;6.32;;
42194;SDS011;27863;49.440;11.102;2023-06-26T15:03:09;6.18;;;5.68;;
42194;SDS011;27863;49.440;11.102;2023-06-26T15:06:09;6.38;;;5.88;;
42194;SDS011;27863;49.440;11.102;2023-06-26T15:09:09;6.13;;;5.72;;
42194;SDS011;27863;49.440;11.102;2023-06-26T15:12:10;7.03;;;6.53;;
42194;SDS011;27863;49.440;11.102;2023-06-26T15:15:11;6.20;;;5.65;;
42194;SDS011;27863;49.440;11.102;2023-06-26T15:18:13;8.15;;;6.05;;
42194;SDS011;27863;49.440;11.102;2023-06-26T15:21:13;7.93;;;7.13;;
42194;SDS011;27863;49.440;11.102;2023-06-26T15:24:14;7.47;;;6.97;;
42194;SDS011;27863;49.440;11.102;2023-06-26T15:27:14;7.78;;;7.10;;
42194;SDS011;27863;49.440;11.102;2023-06-26T15:30:15;7.75;;;6.93;;
42194;SDS011;27863;49.440;11.102;2023-06-26T15:33:16;7.22;;;6.53;;
42194;SDS011;27863;49.440;11.102;2023-06-26T15:36:17;8.35;;;6.47;;
42194;SDS011;27863;49.440;11.102;2023-06-26T15:39:19;7.47;;;6.78;;
42194;SDS011;27863;49.440;11.102;2023-06-26T15:42:27;8.57;;;7.85;;
42194;SDS011;27863;49.440;11.102;2023-06-26T15:45:28;8.45;;;6.60;;
42194;SDS011;27863;49.440;11.102;2023-06-26T15:48:29;7.50;;;6.90;;
42194;SDS011;27863;49.440;11.102;2023-06-26T15:51:39;7.22;;;6.63;;
42194;SDS011;27863;49.440;11.102;2023-06-26T15:54:41;7.82;;;7.13;;
42194;SDS011;27863;49.440;11.102;2023-06-26T15:57:42;12.93;;;11.82;;
42194;SDS011;27863;49.440;11.102;2023-06-26T16:00:43;7.70;;;7.20;;
42194;SDS011;27863;49.440;11.102;2023-06-26T16:03:43;7.82;;;7.07;;
42194;SDS011;27863;49.440;11.102;2023-06-26T16:06:44;7.07;;;6.45;;
42194;SDS011;27863;49.440;11.102;2023-06-26T16:09:44;7.28;;;6.68;;
42194;SDS011;27863;49.440;11.102;2023-06-26T16:12:45;7.85;;;7.30;;
42194;SDS011;27863;49.440;11.102;2023-06-26T16:15:45;7.30;;;6.90;;
42194;SDS011;27863;49.440;11.102;2023-06-26T16:18:47;8.13;;;7.35;;
42194;SDS011;27863;49.440;11.102;2023-06-26T16:21:47;7.63;;;6.90;;
42194;SDS011;27863;49.440;11.102;2023-06-26T16:24:48;7.40;;;6.90;;
42194;SDS011;27863;49.440;11.102;2023-06-26T16:27:48;7.10;;;6.63;;
42194;SDS011;27863;49.440;11.102;2023-06-26T16:30:49;7.32;;;6.68;;
42194;SDS011;27863;49.440;11.102;2023-06-26T16:33:49;7.05;;;6.55;;
42194;SDS011;27863;49.440;11.102;2023-06-26T16:36:50;7.85;;;7.05;;
42194;SDS011;27863;49.440;11.102;2023-06-26T16:39:52;7.40;;;6.90;;
42194;SDS011;27863;49.440;11.102;2023-06-26T16:42:53;6.80;;;6.30;;
42194;SDS011;27863;49.440;11.102;2023-06-26T16:45:54;8.27;;;7.53;;
42194;SDS011;27863;49.440;11.102;2023-06-26T16:48:55;7.43;;;6.78;;
42194;SDS011;27863;49.440;11.102;2023-06-26T16:51:57;7.57;;;7.07;;
42194;SDS011;27863;49.440;11.102;2023-06-26T16:54:57;6.88;;;6.38;;
42194;SDS011;27863;49.440;11.102;2023-06-26T16:57:58;6.75;;;6.25;;
42194;SDS011;27863;49.440;11.102;2023-06-26T17:00:58;6.93;;;6.35;;
42194;SDS011;27863;49.440;11.102;2023-06-26T17:03:59;6.90;;;6.35;;
42194;SDS011;27863;49.440;11.102;2023-06-26T17:07:00;6.30;;;5.00;;
42194;SDS011;27863;49.440;11.102;2023-06-26T17:10:01;6.38;;;5.88;;
42194;SDS011;27863;49.440;11.102;2023-06-26T17:13:01;6.32;;;5.82;;
42194;SDS011;27863;49.440;11.102;2023-06-26T17:16:02;6.40;;;6.00;;
42194;SDS011;27863;49.440;11.102;2023-06-26T17:19:03;6.45;;;5.97;;
42194;SDS011;27863;49.440;11.102;2023-06-26T17:22:03;6.78;;;5.07;;
42194;SDS011;27863;49.440;11.102;2023-06-26T17:25:05;8.80;;;6.00;;
42194;SDS011;27863;49.440;11.102;2023-06-26T17:28:08;7.95;;;6.13;;
42194;SDS011;27863;49.440;11.102;2023-06-26T17:31:08;5.75;;;5.30;;
42194;SDS011;27863;49.440;11.102;2023-06-26T17:34:09;6.07;;;5.47;;
42194;SDS011;27863;49.440;11.102;2023-06-26T17:37:10;5.13;;;4.72;;
42194;SDS011;27863;49.440;11.102;2023-06-26T17:40:10;7.57;;;5.93;;
42194;SDS011;27863;49.440;11.102;2023-06-26T17:43:11;5.60;;;5.20;;
42194;SDS011;27863;49.440;11.102;2023-06-26T17:46:12;6.15;;;5.65;;
42194;SDS011;27863;49.440;11.102;2023-06-26T17:49:12;6.63;;;6.13;;
42194;SDS011;27863;49.440;11.102;2023-06-26T17:52:13;7.30;;;6.00;;
42194;SDS011;27863;49.440;11.102;2023-06-26T17:55:14;6.20;;;5.70;;
42194;SDS011;27863;49.440;11.102;2023-06-26T17:58:14;9.52;;;6.47;;
42194;SDS011;27863;49.440;11.102;2023-06-26T18:01:15;7.13;;;6.43;;
42194;SDS011;27863;49.440;11.102;2023-06-26T18:04:15;12.52;;;5.78;;
42194;SDS011;27863;49.440;11.102;2023-06-26T18:07:16;6.07;;;5.57;;
42194;SDS011;27863;49.440;11.102;2023-06-26T18:10:17;7.43;;;6.82;;
42194;SDS011;27863;49.440;11.102;2023-06-26T18:13:18;6.75;;;6.03;;
42194;SDS011;27863;49.440;11.102;2023-06-26T18:16:18;7.30;;;6.20;;
42194;SDS011;27863;49.440;11.102;2023-06-26T18:19:19;7.32;;;6.70;;
42194;SDS011;27863;49.440;11.102;2023-06-26T18:22:20;6.43;;;5.80;;
42194;SDS011;27863;49.440;11.102;2023-06-26T18:25:20;7.20;;;6.60;;
42194;SDS011;27863;49.440;11.102;2023-06-26T18:28:22;23.75;;;6.47;;
42194;SDS011;27863;49.440;11.102;2023-06-26T18:31:23;8.40;;;5.78;;
42194;SDS011;27863;49.440;11.102;2023-06-26T18:34:23;8.75;;;6.35;;
42194;SDS011;27863;49.440;11.102;2023-06-26T18:37:24;6.57;;;5.88;;
42194;SDS011;27863;49.440;11.102;2023-06-26T18:40:24;6.10;;;5.45;;
42194;SDS011;27863;49.440;11.102;2023-06-26T18:43:25;6.47;;;5.72;;
42194;SDS011;27863;49.440;11.102;2023-06-26T18:46:25;6.20;;;5.70;;
42194;SDS011;27863;49.440;11.102;2023-06-26T18:49:27;6.63;;;6.03;;
42194;SDS011;27863;49.440;11.102;2023-06-26T18:52:28;6.35;;;5.80;;
42194;SDS011;27863;49.440;11.102;2023-06-26T18:55:32;7.32;;;6.63;;
42194;SDS011;27863;49.440;11.102;2023-06-26T18:58:34;6.15;;;5.45;;
42194;SDS011;27863;49.440;11.102;2023-06-26T19:01:36;6.68;;;6.07;;
42194;SDS011;27863;49.440;11.102;2023-06-26T19:04:40;6.43;;;5.47;;
42194;SDS011;27863;49.440;11.102;2023-06-26T19:07:40;6.57;;;6.03;;
42194;SDS011;27863;49.440;11.102;2023-06-26T19:10:41;5.65;;;5.15;;
42194;SDS011;27863;49.440;11.102;2023-06-26T19:13:42;7.93;;;5.68;;
42194;SDS011;27863;49.440;11.102;2023-06-26T19:16:43;10.90;;;5.15;;
42194;SDS011;27863;49.440;11.102;2023-06-26T19:19:44;5.72;;;5.20;;
42194;SDS011;27863;49.440;11.102;2023-06-26T19:22:44;5.40;;;4.88;;
42194;SDS011;27863;49.440;11.102;2023-06-26T19:25:45;5.93;;;4.78;;
42194;SDS011;27863;49.440;11.102;2023-06-26T19:28:46;5.50;;;5.00;;
42194;SDS011;27863;49.440;11.102;2023-06-26T19:31:47;5.88;;;5.03;;
42194;SDS011;27863;49.440;11.102;2023-06-26T19:34:49;5.80;;;4.22;;
42194;SDS011;27863;49.440;11.102;2023-06-26T19:37:51;4.55;;;4.05;;
42194;SDS011;27863;49.440;11.102;2023-06-26T19:40:51;6.57;;;3.67;;
42194;SDS011;27863;49.440;11.102;2023-06-26T19:43:52;4.85;;;3.03;;
42194;SDS011;27863;49.440;11.102;2023-06-26T19:46:53;3.35;;;3.08;;